Airfield :
LOGIN :

Register | Disclaimer

   EN    FR    IT 

 










Legend :    VFR   Marginal VFR   IFR   Intensive IFR   Very Intensive IFR
Visi :
Ceiling :
>= 8 km
>= 3000ft
5 to 8 km
1000 to 3000 ft
1500m to 5 km
500 to 1000 ft
800 to 1500m
200 to 500 ft
< 800m
< 200 ft
Symbols :   Thunderstorms  Fog  Heavy snow  Heavy precipitations  Wind > 20 kt
SIGMETs :     Misc.  Thunderstorms  Icing  Turbulence  Mountain Waves  Volcanic Ashes







- Airport Elevation : 1306 ft
- IATA code : ELG


DAUE - El Golea

CURRENT METAR :
  • 181800Z 07008KT 9999 BKN040 34/13 Q1016

EXPIRED METARs :
  • 181700Z 10008KT 9999 SCT040 34/14 Q1016
  • 181600Z 10008KT 9999 SCT040 35/15 Q1016

Expired Forecast.
No reported NOTAMs for that airfield.
3 SIGMETs reported for the Alger FIR (DAAA) :
 
Embedded thunderstorms
DAAA SIGMET 4 VALID 181800/182030 DAMM
DAAA ALGER FIR EMBD TS OBS W OF LINE N2819 W00719 - N2640 W00719 TOP FL400 STNR NC=
Embedded thunderstorms
DAAA SIGMET 3 VALID 181800/182100 DAMM
DAAA ALGER FIR EMBD TS OBS WI N3719 E00650 - N3319 E00554 - N3319 E00154 - N3719 E00300 - N3719 E00650 TOP FL380 MOV NE NC=
Embedded thunderstorms
DAAA SIGMET 2 VALID 181500/181800 DAMM
DAAA ALGER FIR EMBD TS FCST WI N3719 E00650 - N3319 E00554 - N3321 E00155 - N3709 E00301 - N3719 E00650 TOP FL380 MOV NE INTSF=



MET'MAP, your aeronautical weather chart ! - Copyright ORBIFLY December 2007 - Disclaimer

ORBIFLY MET'MAP TEAM :

Programming & Development : Alexandra Zaïnal
Concept & Development : Baudouin d'Aumeries
Co-Development & Prog : Marc-Olivier Méhu
Technical & hardware support : Manuel Goepfert

Contact : metmap@orbifly.com




SOURCES & CREDITS :

   NOAA